Time;durP1;ratioP1;P1;durP2;ratioP2;P2;SDS_P1;SDS_P2;PMS_P1;PMS_P2;Temp;Humidity;BMP_temperature;BMP_pressure;BME280_temperature;BME280_humidity;BME280_pressure;Samples;Min_cycle;Max_cycle;Signal;HPM_P1;HPM_P2
2021/12/22 00:00:45;;;;;;;21.00;10.57;;;-2.90;99.90;;;;;;5073731;28;20230;-40
2021/12/22 00:03:12;;;;;;;19.97;10.43;;;-2.90;99.90;;;;;;5080028;27;20228;-40
2021/12/22 00:05:44;;;;;;;20.07;9.80;;;-2.90;99.90;;;;;;5065894;28;20223;-46
2021/12/22 00:08:13;;;;;;;15.50;9.17;;;-2.80;99.90;;;;;;5052084;28;20352;-46
2021/12/22 00:10:40;;;;;;;21.67;10.33;;;-2.80;99.90;;;;;;5069203;27;20233;-45
2021/12/22 00:13:08;;;;;;;15.47;9.73;;;-2.80;99.90;;;;;;5053424;27;20200;-46
2021/12/22 00:15:35;;;;;;;19.80;9.93;;;-2.90;99.90;;;;;;5089464;28;20226;-46
2021/12/22 00:18:03;;;;;;;16.70;9.80;;;-2.80;99.90;;;;;;5068351;28;20208;-46
2021/12/22 00:20:30;;;;;;;17.83;9.27;;;-2.80;99.90;;;;;;5063493;28;20590;-45
2021/12/22 00:22:57;;;;;;;18.93;10.87;;;-2.70;99.90;;;;;;5063810;28;20228;-46
2021/12/22 00:25:26;;;;;;;16.83;9.33;;;-2.80;99.90;;;;;;5066157;28;21547;-40
2021/12/22 00:27:54;;;;;;;19.70;10.53;;;-2.80;99.90;;;;;;5069775;27;20214;-40
2021/12/22 00:30:23;;;;;;;15.13;9.27;;;-2.70;99.90;;;;;;5060892;28;20233;-40
2021/12/22 00:32:52;;;;;;;17.13;9.47;;;-2.70;99.90;;;;;;5072222;28;20314;-40
2021/12/22 00:35:23;;;;;;;16.50;9.47;;;-2.70;99.90;;;;;;5057991;28;20225;-45
2021/12/22 00:37:51;;;;;;;14.43;8.90;;;-2.70;99.90;;;;;;5067121;27;20208;-46
2021/12/22 00:40:18;;;;;;;15.97;9.00;;;-2.70;99.90;;;;;;5056165;28;20294;-45
2021/12/22 00:42:47;;;;;;;15.77;8.97;;;-2.70;99.90;;;;;;5056295;28;20813;-45
2021/12/22 00:45:17;;;;;;;14.03;8.37;;;-2.70;99.90;;;;;;5066016;28;20235;-46
2021/12/22 00:47:44;;;;;;;13.03;8.10;;;-2.70;99.90;;;;;;5054480;27;20214;-46
2021/12/22 00:50:11;;;;;;;12.80;8.63;;;-2.70;99.90;;;;;;5070234;28;20222;-46
2021/12/22 00:52:38;;;;;;;14.23;9.00;;;-2.70;99.90;;;;;;5062849;28;21783;-47
2021/12/22 00:55:06;;;;;;;14.70;8.43;;;-2.70;99.90;;;;;;5058988;28;20951;-46
2021/12/22 00:57:35;;;;;;;12.50;7.77;;;-2.70;99.90;;;;;;5065678;28;20202;-45
2021/12/22 01:00:05;;;;;;;13.00;8.60;;;-2.70;99.90;;;;;;5067360;27;20210;-46
2021/12/22 01:02:32;;;;;;;13.47;8.60;;;-2.70;99.90;;;;;;5077971;28;20983;-45
2021/12/22 01:04:59;;;;;;;13.10;8.33;;;-2.80;99.90;;;;;;5057315;28;20229;-46
2021/12/22 01:07:26;;;;;;;12.63;8.23;;;-2.90;99.90;;;;;;5064060;28;20209;-40
2021/12/22 01:09:54;;;;;;;13.33;8.20;;;-2.90;99.90;;;;;;5044613;28;20217;-40
2021/12/22 01:12:21;;;;;;;13.07;8.73;;;-3.00;99.90;;;;;;5056258;27;20221;-46
2021/12/22 01:14:49;;;;;;;14.97;9.10;;;-3.00;99.90;;;;;;5047356;28;20236;-46
2021/12/22 01:17:18;;;;;;;14.07;8.40;;;-3.10;99.90;;;;;;5062953;28;20308;-46
2021/12/22 01:19:52;;;;;;;16.70;9.77;;;-3.20;99.90;;;;;;5066434;28;20220;-45
2021/12/22 01:22:27;;;;;;;12.47;8.90;;;-3.20;99.90;;;;;;5060813;27;20628;-46
2021/12/22 01:25:02;;;;;;;12.63;8.17;;;-3.20;99.90;;;;;;5059548;28;20233;-45
2021/12/22 01:27:34;;;;;;;16.43;9.20;;;-3.20;99.90;;;;;;5052995;27;20202;-40
2021/12/22 01:30:01;;;;;;;12.77;8.83;;;-3.10;99.90;;;;;;5068445;28;20211;-40
2021/12/22 01:32:30;;;;;;;16.03;8.87;;;-3.10;99.90;;;;;;5048127;28;20195;-41
2021/12/22 01:34:58;;;;;;;14.60;8.50;;;-3.10;99.90;;;;;;5041991;28;21168;-40
2021/12/22 01:37:25;;;;;;;12.60;8.63;;;-3.10;99.90;;;;;;5042066;28;20214;-40
2021/12/22 01:39:52;;;;;;;15.50;8.83;;;-3.10;99.90;;;;;;5049932;28;20813;-40
2021/12/22 01:42:20;;;;;;;12.67;8.83;;;-3.10;99.90;;;;;;5047282;28;20204;-38
2021/12/22 01:45:02;;;;;;;15.10;9.10;;;-3.10;99.90;;;;;;5048214;28;20311;-37
2021/12/22 01:50:32;;;;;;;17.27;9.57;;;-3.10;99.90;;;;;;5022945;28;20273;-37
2021/12/22 01:53:05;;;;;;;17.43;9.53;;;-3.10;99.90;;;;;;5065127;28;20858;-37
2021/12/22 01:55:37;;;;;;;13.90;9.53;;;-3.10;99.90;;;;;;5050788;28;20227;-37
2021/12/22 01:58:12;;;;;;;13.10;8.80;;;-3.20;99.90;;;;;;5068550;28;20302;-37
2021/12/22 02:00:39;;;;;;;14.03;8.87;;;-3.20;99.90;;;;;;5052597;28;20204;-37
2021/12/22 02:03:08;;;;;;;14.10;9.47;;;-3.20;99.90;;;;;;5066596;28;20209;-37
2021/12/22 02:05:36;;;;;;;16.33;8.77;;;-3.30;99.90;;;;;;5068752;28;20237;-40
2021/12/22 02:08:07;;;;;;;13.73;8.73;;;-3.30;99.90;;;;;;5060442;28;20279;-40
2021/12/22 02:10:40;;;;;;;15.33;9.53;;;-3.30;99.90;;;;;;5059874;28;20346;-40
2021/12/22 02:13:14;;;;;;;13.93;9.40;;;-3.30;99.90;;;;;;5059610;28;20211;-40
2021/12/22 02:15:42;;;;;;;13.80;9.03;;;-3.30;99.90;;;;;;5056013;28;20509;-40
2021/12/22 02:18:16;;;;;;;16.77;8.50;;;-3.30;99.90;;;;;;5073393;28;20213;-40
2021/12/22 02:20:45;;;;;;;16.33;9.07;;;-3.30;99.90;;;;;;5048515;28;20210;-40
2021/12/22 02:23:12;;;;;;;20.23;10.03;;;-3.30;99.90;;;;;;5064199;28;20240;-40
2021/12/22 02:25:46;;;;;;;13.87;9.40;;;-3.40;99.90;;;;;;5070332;28;20232;-40
2021/12/22 02:28:19;;;;;;;17.20;9.10;;;-3.40;99.90;;;;;;5056287;28;20206;-40
2021/12/22 02:30:46;;;;;;;14.77;9.00;;;-3.40;99.90;;;;;;5065339;28;20212;-40
2021/12/22 02:33:25;;;;;;;14.37;8.77;;;-3.40;99.90;;;;;;5059890;28;20738;-40
2021/12/22 02:36:07;;;;;;;15.07;8.50;;;-3.40;99.90;;;;;;5063662;28;20244;-40
2021/12/22 02:38:37;;;;;;;12.47;8.60;;;-3.40;99.90;;;;;;5062008;28;20208;-40
2021/12/22 02:41:07;;;;;;;18.07;9.30;;;-3.50;99.90;;;;;;5075603;28;20195;-40
2021/12/22 02:43:35;;;;;;;13.00;8.37;;;-3.50;99.90;;;;;;5052861;28;20778;-40
2021/12/22 02:46:03;;;;;;;13.00;8.87;;;-3.50;99.90;;;;;;5071185;28;20283;-40
2021/12/22 02:48:30;;;;;;;13.57;8.10;;;-3.50;99.90;;;;;;5066544;28;20204;-40
2021/12/22 02:51:02;;;;;;;16.20;9.43;;;-3.50;99.90;;;;;;5066297;28;20214;-40
2021/12/22 02:53:38;;;;;;;14.37;9.20;;;-3.50;99.90;;;;;;5061846;28;20205;-40
2021/12/22 02:56:14;;;;;;;14.37;8.67;;;-3.50;99.90;;;;;;5081108;28;20259;-40
2021/12/22 02:58:53;;;;;;;15.43;9.40;;;-3.50;99.90;;;;;;5064066;28;20216;-40
2021/12/22 03:01:39;;;;;;;14.23;9.10;;;-3.50;99.90;;;;;;5043260;28;20222;-40
2021/12/22 03:04:12;;;;;;;14.90;9.50;;;-3.50;99.90;;;;;;5064175;28;20222;-40
2021/12/22 03:06:50;;;;;;;17.00;9.47;;;-3.50;99.90;;;;;;5065006;28;20221;-40
2021/12/22 03:09:18;;;;;;;15.93;9.00;;;-3.50;99.90;;;;;;5077162;28;21457;-40
2021/12/22 03:11:45;;;;;;;20.80;9.83;;;-3.50;99.90;;;;;;5069440;28;20223;-40
2021/12/22 03:14:13;;;;;;;17.80;9.77;;;-3.50;99.90;;;;;;5049123;28;20791;-40
2021/12/22 03:16:42;;;;;;;16.17;10.33;;;-3.50;99.90;;;;;;5064002;28;23499;-40
2021/12/22 03:19:10;;;;;;;19.73;10.13;;;-3.50;99.90;;;;;;5060552;28;20221;-40
2021/12/22 03:21:38;;;;;;;23.17;11.23;;;-3.50;99.90;;;;;;5059691;28;20209;-40
2021/12/22 03:24:07;;;;;;;21.47;10.80;;;-3.50;99.90;;;;;;5078854;28;20274;-40
2021/12/22 03:26:41;;;;;;;21.63;11.20;;;-3.60;99.90;;;;;;5075119;28;20375;-40
2021/12/22 03:29:08;;;;;;;20.03;10.47;;;-3.60;99.90;;;;;;5061675;28;20220;-40
2021/12/22 03:31:36;;;;;;;16.97;10.23;;;-3.60;99.90;;;;;;5053935;28;20963;-40
2021/12/22 03:34:04;;;;;;;18.23;10.50;;;-3.60;99.90;;;;;;5064065;28;20209;-40
2021/12/22 03:36:32;;;;;;;23.77;10.83;;;-3.60;99.90;;;;;;5070891;28;20196;-40
2021/12/22 03:38:59;;;;;;;23.07;11.03;;;-3.60;99.90;;;;;;5065979;28;20211;-40
2021/12/22 03:41:27;;;;;;;21.93;12.47;;;-3.60;99.90;;;;;;5063979;28;20209;-40
2021/12/22 03:43:54;;;;;;;21.03;11.73;;;-3.60;99.90;;;;;;5043955;28;21736;-40
2021/12/22 03:46:21;;;;;;;24.10;11.70;;;-3.70;99.90;;;;;;5072128;28;20215;-45
2021/12/22 03:48:48;;;;;;;19.27;10.57;;;-3.70;99.90;;;;;;5052080;28;20208;-46
2021/12/22 03:51:14;;;;;;;20.33;11.03;;;-3.60;99.90;;;;;;5061662;28;20259;-45
2021/12/22 03:53:41;;;;;;;24.53;11.63;;;-3.70;99.90;;;;;;5064787;28;20215;-45
2021/12/22 03:56:08;;;;;;;28.57;12.03;;;-3.70;99.90;;;;;;5069209;28;20238;-45
2021/12/22 03:58:37;;;;;;;23.80;11.37;;;-3.70;99.90;;;;;;5046244;28;20615;-46
2021/12/22 04:01:04;;;;;;;23.43;11.23;;;-3.70;99.90;;;;;;5061143;28;20213;-45
2021/12/22 04:03:34;;;;;;;25.97;12.17;;;-3.80;99.90;;;;;;5047846;28;20860;-45
2021/12/22 04:06:01;;;;;;;23.60;12.77;;;-3.80;99.90;;;;;;5055157;28;22821;-45
2021/12/22 04:08:28;;;;;;;24.93;12.80;;;-3.90;99.90;;;;;;5067618;28;20262;-45
2021/12/22 04:10:55;;;;;;;27.67;12.17;;;-3.80;99.90;;;;;;5064171;28;20208;-45
2021/12/22 04:13:22;;;;;;;23.07;11.93;;;-3.80;99.90;;;;;;5050490;28;20212;-45
2021/12/22 04:15:50;;;;;;;21.97;11.97;;;-3.80;99.90;;;;;;5055739;28;20238;-45
2021/12/22 04:18:19;;;;;;;25.37;13.30;;;-3.80;99.90;;;;;;5076727;27;20210;-45
2021/12/22 04:20:46;;;;;;;31.27;13.43;;;-3.80;99.90;;;;;;5061638;28;20256;-45
2021/12/22 04:23:13;;;;;;;24.50;12.40;;;-3.80;99.90;;;;;;5064434;28;20208;-47
2021/12/22 04:25:40;;;;;;;20.83;11.10;;;-3.80;99.90;;;;;;5071771;27;20321;-45
2021/12/22 04:28:09;;;;;;;27.27;13.30;;;-3.90;99.90;;;;;;5048575;28;20207;-45
2021/12/22 04:30:38;;;;;;;27.57;12.33;;;-3.90;99.90;;;;;;5075702;28;21188;-45
2021/12/22 04:33:06;;;;;;;22.33;12.17;;;-3.90;99.90;;;;;;5066580;28;20627;-45
2021/12/22 04:35:34;;;;;;;30.50;13.40;;;-3.90;99.90;;;;;;5069375;28;20234;-45
2021/12/22 04:38:01;;;;;;;25.73;12.70;;;-3.90;99.90;;;;;;5074775;28;20203;-45
2021/12/22 04:40:28;;;;;;;25.00;12.87;;;-4.00;99.90;;;;;;5076502;28;20230;-45
2021/12/22 04:42:55;;;;;;;22.57;12.33;;;-4.00;99.90;;;;;;5075456;28;20205;-45
2021/12/22 04:45:22;;;;;;;24.03;12.17;;;-4.00;99.90;;;;;;5068809;28;20225;-45
2021/12/22 04:47:51;;;;;;;25.13;12.03;;;-3.90;99.90;;;;;;5063413;28;20195;-45
2021/12/22 04:50:22;;;;;;;26.40;12.40;;;-3.90;99.90;;;;;;5073011;28;20694;-45
2021/12/22 04:52:55;;;;;;;27.80;12.87;;;-4.00;99.90;;;;;;5072855;27;20207;-45
2021/12/22 04:55:25;;;;;;;26.30;12.43;;;-3.90;99.90;;;;;;5073514;27;20340;-46
2021/12/22 04:57:53;;;;;;;24.67;12.03;;;-4.00;99.90;;;;;;5070408;28;21677;-45
2021/12/22 05:00:21;;;;;;;22.73;12.17;;;-4.00;99.90;;;;;;5051025;28;20475;-45
2021/12/22 05:02:48;;;;;;;25.10;11.97;;;-3.90;99.90;;;;;;5077271;28;20904;-45
2021/12/22 05:05:16;;;;;;;25.07;12.47;;;-4.00;99.90;;;;;;5063765;28;20223;-45
2021/12/22 05:07:47;;;;;;;18.97;11.17;;;-3.90;99.90;;;;;;5050511;28;20205;-45
2021/12/22 05:10:15;;;;;;;22.70;10.67;;;-4.00;99.90;;;;;;5040810;28;20232;-41
2021/12/22 05:12:43;;;;;;;20.27;11.00;;;-4.00;99.90;;;;;;5052809;28;20227;-41
2021/12/22 05:15:13;;;;;;;23.37;11.03;;;-4.00;99.90;;;;;;5051474;28;20232;-37
2021/12/22 05:20:21;;;;;;;20.40;11.33;;;-4.00;99.90;;;;;;5047293;28;20686;-43
2021/12/22 05:22:50;;;;;;;20.43;10.53;;;-4.00;99.90;;;;;;5050284;28;20207;-37
2021/12/22 05:25:18;;;;;;;18.50;9.67;;;-4.00;99.90;;;;;;5068132;27;20313;-40
2021/12/22 05:27:45;;;;;;;21.80;10.87;;;-4.10;99.90;;;;;;5056914;28;20301;-40
2021/12/22 05:30:13;;;;;;;18.53;10.10;;;-4.10;99.90;;;;;;5049815;28;21669;-40
2021/12/22 05:32:40;;;;;;;19.67;10.73;;;-4.00;99.90;;;;;;5043463;28;20204;-40
2021/12/22 05:35:10;;;;;;;25.83;11.57;;;-4.10;99.90;;;;;;5058636;28;20227;-40
2021/12/22 05:37:37;;;;;;;26.10;12.60;;;-4.10;99.90;;;;;;5057476;28;20204;-41
2021/12/22 05:40:07;;;;;;;24.90;12.23;;;-4.10;99.90;;;;;;5056543;28;20213;-40
2021/12/22 05:42:34;;;;;;;33.33;13.40;;;-4.10;99.90;;;;;;5069971;28;20214;-40
2021/12/22 05:45:01;;;;;;;22.47;12.00;;;-4.10;99.90;;;;;;5034294;28;20228;-40
2021/12/22 05:47:28;;;;;;;26.73;12.23;;;-4.10;99.90;;;;;;5070283;28;20332;-40
2021/12/22 05:49:55;;;;;;;23.70;11.63;;;-4.00;99.90;;;;;;5051295;28;20203;-40
2021/12/22 05:52:23;;;;;;;27.17;14.33;;;-4.00;99.90;;;;;;5045658;28;20212;-40
2021/12/22 05:54:50;;;;;;;29.87;14.53;;;-4.00;99.90;;;;;;5075679;28;20224;-40
2021/12/22 05:57:18;;;;;;;31.83;16.17;;;-4.00;99.90;;;;;;5045613;28;20227;-40
2021/12/22 05:59:46;;;;;;;36.43;18.20;;;-4.00;99.90;;;;;;5051642;28;20745;-40
2021/12/22 06:02:14;;;;;;;42.10;19.80;;;-4.00;99.90;;;;;;5050346;28;20315;-40
2021/12/22 06:04:40;;;;;;;33.00;15.37;;;-4.10;99.90;;;;;;5048397;28;20228;-40
2021/12/22 06:07:08;;;;;;;23.30;11.33;;;-4.10;99.90;;;;;;5062228;28;20199;-40
2021/12/22 06:09:35;;;;;;;27.47;12.30;;;-4.10;99.90;;;;;;5049810;28;20209;-40
2021/12/22 06:12:02;;;;;;;22.60;11.77;;;-4.00;99.90;;;;;;5051134;28;20402;-45
2021/12/22 06:14:31;;;;;;;19.17;10.70;;;-4.00;99.90;;;;;;5044150;28;20242;-45
2021/12/22 06:16:58;;;;;;;26.17;12.50;;;-4.00;99.90;;;;;;5043494;28;20769;-45
2021/12/22 06:19:25;;;;;;;27.93;12.27;;;-4.00;99.90;;;;;;5051834;28;20200;-45
2021/12/22 06:21:52;;;;;;;23.53;11.27;;;-4.00;99.90;;;;;;5061746;28;20208;-46
2021/12/22 06:24:19;;;;;;;24.13;12.07;;;-4.00;99.90;;;;;;5050665;28;20228;-45
2021/12/22 06:26:47;;;;;;;20.97;10.60;;;-3.90;99.90;;;;;;5054114;28;20784;-46
2021/12/22 06:29:14;;;;;;;17.40;9.80;;;-3.90;99.90;;;;;;5061299;28;20866;-46
2021/12/22 06:31:43;;;;;;;18.47;10.13;;;-3.90;99.90;;;;;;5049991;28;20204;-45
2021/12/22 06:34:10;;;;;;;20.47;11.03;;;-4.00;99.90;;;;;;5052366;28;20865;-45
2021/12/22 06:36:38;;;;;;;20.20;10.63;;;-4.00;99.90;;;;;;5067161;28;20206;-45
2021/12/22 06:39:06;;;;;;;21.83;10.67;;;-4.00;99.90;;;;;;5054896;28;20210;-45
2021/12/22 06:41:33;;;;;;;21.43;10.53;;;-4.00;99.90;;;;;;5079487;28;20203;-48
2021/12/22 06:44:01;;;;;;;21.07;10.10;;;-4.00;99.90;;;;;;5056746;28;20216;-45
2021/12/22 06:46:29;;;;;;;17.07;9.63;;;-4.00;99.90;;;;;;5065562;28;20277;-45
2021/12/22 06:48:57;;;;;;;22.10;10.40;;;-4.00;99.90;;;;;;5040414;28;20204;-45
2021/12/22 06:51:24;;;;;;;15.53;8.97;;;-4.00;99.90;;;;;;5068713;28;20231;-45
2021/12/22 06:53:51;;;;;;;17.93;9.60;;;-4.00;99.90;;;;;;5058609;28;20391;-45
2021/12/22 06:56:19;;;;;;;19.20;10.17;;;-4.00;99.90;;;;;;5039755;28;20209;-45
2021/12/22 06:58:47;;;;;;;16.03;9.13;;;-3.90;99.90;;;;;;5056682;28;20722;-45
2021/12/22 07:01:18;;;;;;;16.37;9.60;;;-3.90;99.90;;;;;;5047428;28;20207;-45
2021/12/22 07:03:45;;;;;;;20.43;10.37;;;-3.90;99.90;;;;;;5037104;28;21289;-45
2021/12/22 07:06:14;;;;;;;17.13;9.67;;;-3.90;99.90;;;;;;5070547;28;20356;-45
2021/12/22 07:08:41;;;;;;;17.77;9.50;;;-3.90;99.90;;;;;;5056703;28;20892;-46
2021/12/22 07:11:09;;;;;;;20.93;10.53;;;-3.90;99.90;;;;;;5067703;28;20208;-45
2021/12/22 07:13:37;;;;;;;19.17;10.57;;;-3.90;99.90;;;;;;5054068;28;20568;-45
2021/12/22 07:16:04;;;;;;;17.27;9.57;;;-3.90;99.90;;;;;;5058934;28;21283;-45
2021/12/22 07:18:32;;;;;;;22.60;10.83;;;-3.90;99.90;;;;;;5047444;28;20206;-45
2021/12/22 07:20:59;;;;;;;20.57;10.33;;;-3.90;99.90;;;;;;5048765;28;20251;-45
2021/12/22 07:23:27;;;;;;;16.70;9.97;;;-3.90;99.90;;;;;;5060790;28;21990;-45
2021/12/22 07:25:54;;;;;;;16.93;9.67;;;-3.80;99.90;;;;;;5050138;28;20328;-45
2021/12/22 07:28:21;;;;;;;16.93;9.23;;;-3.80;99.90;;;;;;5069675;28;20204;-45
2021/12/22 07:30:48;;;;;;;21.37;10.47;;;-3.70;99.90;;;;;;5059813;28;20205;-46
2021/12/22 07:33:15;;;;;;;20.33;9.87;;;-3.80;99.90;;;;;;5045252;28;21368;-46
2021/12/22 07:35:46;;;;;;;16.37;9.43;;;-3.70;99.90;;;;;;5049919;28;22214;-45
2021/12/22 07:38:32;;;;;;;18.73;9.73;;;-3.80;99.90;;;;;;5066721;28;20208;-45
2021/12/22 07:41:00;;;;;;;20.83;9.90;;;-3.80;99.90;;;;;;5048650;28;20216;-45
2021/12/22 07:43:28;;;;;;;19.93;10.50;;;-3.70;99.90;;;;;;5059433;28;22114;-46
2021/12/22 07:45:56;;;;;;;20.43;10.30;;;-3.60;99.90;;;;;;5061837;28;21001;-45
2021/12/22 07:48:23;;;;;;;24.37;11.30;;;-3.60;99.90;;;;;;5047578;28;20212;-45
2021/12/22 07:50:51;;;;;;;23.27;12.03;;;-3.70;99.90;;;;;;5056737;28;20217;-45
2021/12/22 07:53:18;;;;;;;20.97;11.73;;;-3.60;99.90;;;;;;5070361;28;20776;-45
2021/12/22 07:55:47;;;;;;;21.53;11.70;;;-3.60;99.90;;;;;;5055979;28;20776;-45
2021/12/22 07:58:15;;;;;;;22.87;10.87;;;-3.60;99.90;;;;;;5069517;28;20214;-45
2021/12/22 08:00:42;;;;;;;21.57;11.73;;;-3.50;99.90;;;;;;5065321;28;20216;-45
2021/12/22 08:03:11;;;;;;;22.93;11.23;;;-3.50;99.90;;;;;;5057403;28;20671;-45
2021/12/22 08:05:38;;;;;;;23.83;11.60;;;-3.50;99.90;;;;;;5033049;28;20256;-45
2021/12/22 08:08:05;;;;;;;25.63;11.83;;;-3.50;99.90;;;;;;5070190;28;20224;-45
2021/12/22 08:10:33;;;;;;;29.40;13.90;;;-3.50;99.90;;;;;;5042081;28;20221;-45
2021/12/22 08:13:01;;;;;;;23.77;11.60;;;-3.50;99.90;;;;;;5054877;28;20201;-45
2021/12/22 08:15:28;;;;;;;22.60;10.90;;;-3.40;99.90;;;;;;5079138;28;20224;-45
2021/12/22 08:17:55;;;;;;;26.47;10.83;;;-3.50;99.90;;;;;;5049183;28;20212;-45
2021/12/22 08:20:23;;;;;;;22.40;11.27;;;-3.40;99.90;;;;;;5063306;28;20209;-46
2021/12/22 08:22:50;;;;;;;19.43;10.60;;;-3.40;99.90;;;;;;5044201;28;20613;-45
2021/12/22 08:25:17;;;;;;;20.87;10.70;;;-3.40;99.90;;;;;;5060855;27;20700;-45
2021/12/22 08:27:44;;;;;;;23.73;11.83;;;-3.40;99.90;;;;;;5061499;28;20210;-46
2021/12/22 08:30:13;;;;;;;24.93;11.60;;;-3.40;99.90;;;;;;5066896;28;20370;-45
2021/12/22 08:32:41;;;;;;;24.27;11.27;;;-3.40;99.90;;;;;;5064203;28;20212;-45
2021/12/22 08:35:11;;;;;;;21.03;11.20;;;-3.30;99.90;;;;;;5060713;28;20743;-45
2021/12/22 08:40:23;;;;;;;25.03;10.73;;;-3.40;99.90;;;;;;5065615;28;20329;-45
2021/12/22 08:42:51;;;;;;;26.20;11.83;;;-3.30;99.90;;;;;;5071114;28;20214;-45
2021/12/22 08:45:20;;;;;;;21.47;11.70;;;-3.30;99.90;;;;;;5046815;28;20228;-40
2021/12/22 08:47:48;;;;;;;23.60;10.60;;;-3.30;99.90;;;;;;5060673;28;20215;-40
2021/12/22 08:50:18;;;;;;;23.43;11.70;;;-3.20;99.90;;;;;;5054623;28;20816;-40
2021/12/22 08:52:45;;;;;;;23.13;11.70;;;-3.20;99.90;;;;;;5051677;28;20211;-40
2021/12/22 08:55:13;;;;;;;19.10;11.30;;;-3.20;99.90;;;;;;5043500;28;20225;-40
2021/12/22 08:57:41;;;;;;;20.90;11.30;;;-3.20;99.90;;;;;;5059355;28;20216;-40
2021/12/22 09:00:11;;;;;;;22.97;11.53;;;-3.20;99.90;;;;;;5047166;28;20207;-40
2021/12/22 09:02:40;;;;;;;21.43;11.17;;;-3.10;99.90;;;;;;5064790;27;22025;-40
2021/12/22 09:05:08;;;;;;;22.57;12.30;;;-3.10;99.90;;;;;;5068304;28;20227;-40
2021/12/22 09:07:34;;;;;;;21.83;11.60;;;-3.10;99.90;;;;;;5054812;28;20202;-40
2021/12/22 09:10:02;;;;;;;23.87;11.43;;;-3.00;99.90;;;;;;5065240;27;20234;-40
2021/12/22 09:12:29;;;;;;;23.30;11.23;;;-3.10;99.90;;;;;;5063982;28;20216;-40
2021/12/22 09:14:57;;;;;;;20.63;11.57;;;-3.00;99.90;;;;;;5045601;27;20234;-40
2021/12/22 09:17:24;;;;;;;22.43;12.50;;;-3.00;99.90;;;;;;5061766;27;20201;-40
2021/12/22 09:19:53;;;;;;;21.13;11.47;;;-3.00;99.90;;;;;;5062461;28;20356;-40
2021/12/22 09:22:21;;;;;;;19.40;11.37;;;-3.00;99.90;;;;;;5068100;28;20220;-40
2021/12/22 09:24:48;;;;;;;21.23;11.20;;;-2.90;99.90;;;;;;5058674;28;20229;-40
2021/12/22 09:27:15;;;;;;;23.27;11.83;;;-2.90;99.90;;;;;;5069995;28;20250;-40
2021/12/22 09:29:44;;;;;;;25.77;13.23;;;-2.90;99.90;;;;;;5064965;27;20226;-40
2021/12/22 09:32:14;;;;;;;23.33;12.80;;;-2.80;99.90;;;;;;5078130;28;20596;-40
2021/12/22 09:34:42;;;;;;;22.93;11.90;;;-2.80;99.90;;;;;;5063738;28;20234;-46
2021/12/22 09:37:11;;;;;;;24.67;12.10;;;-2.80;99.90;;;;;;5056664;28;20195;-37
2021/12/22 09:39:38;;;;;;;23.90;12.50;;;-2.70;99.90;;;;;;5059015;27;20230;-37
2021/12/22 09:42:05;;;;;;;25.33;12.27;;;-2.70;99.90;;;;;;5065902;28;20204;-37
2021/12/22 09:44:37;;;;;;;27.23;13.77;;;-2.80;99.90;;;;;;5070099;28;21034;-37
2021/12/22 09:47:05;;;;;;;25.60;14.20;;;-2.70;99.90;;;;;;5076518;28;20263;-37
2021/12/22 09:49:58;;;;;;;29.53;14.90;;;-2.60;99.90;;;;;;5055993;28;20204;-37
2021/12/22 09:52:27;;;;;;;28.73;13.77;;;-2.60;99.90;;;;;;5077960;28;21072;-37
2021/12/22 09:54:59;;;;;;;27.43;13.43;;;-2.60;99.90;;;;;;5041241;27;20326;-37
2021/12/22 09:57:28;;;;;;;28.57;13.80;;;-2.60;99.90;;;;;;5077700;28;20269;-37
2021/12/22 09:59:57;;;;;;;27.80;15.13;;;-2.60;99.90;;;;;;5059389;28;20866;-37
2021/12/22 10:02:28;;;;;;;30.30;15.70;;;-2.60;99.90;;;;;;5061862;28;20207;-37
2021/12/22 10:04:57;;;;;;;29.23;15.40;;;-2.50;99.90;;;;;;5058356;27;20643;-37
2021/12/22 10:07:27;;;;;;;45.03;21.03;;;-2.50;99.90;;;;;;5062080;28;20220;-37
2021/12/22 10:10:02;;;;;;;36.67;18.53;;;-2.50;99.90;;;;;;5044548;28;21580;-37
2021/12/22 10:12:29;;;;;;;31.67;15.17;;;-2.40;99.90;;;;;;5076466;28;20293;-45
2021/12/22 10:14:58;;;;;;;30.47;15.07;;;-2.40;99.90;;;;;;5059804;28;20234;-37
2021/12/22 10:17:34;;;;;;;29.93;14.27;;;-2.40;99.90;;;;;;5067098;28;21032;-37
2021/12/22 10:20:05;;;;;;;29.07;15.00;;;-2.40;99.90;;;;;;5064451;28;20200;-37
2021/12/22 10:22:35;;;;;;;33.10;15.00;;;-2.30;99.90;;;;;;5057246;28;20215;-37
2021/12/22 10:25:10;;;;;;;29.90;14.90;;;-2.40;99.90;;;;;;5061205;28;20224;-37
2021/12/22 10:27:39;;;;;;;27.50;14.30;;;-2.30;99.90;;;;;;5003481;28;20308;-40
2021/12/22 10:30:27;;;;;;;30.07;15.90;;;-2.30;99.90;;;;;;5038191;28;20285;-41
2021/12/22 10:33:14;;;;;;;29.37;13.73;;;-2.30;99.90;;;;;;5047530;28;20212;-40
2021/12/22 10:35:44;;;;;;;30.83;16.53;;;-2.00;99.90;;;;;;5050073;27;20230;-40
2021/12/22 10:38:14;;;;;;;29.63;15.83;;;-1.90;99.90;;;;;;5059968;28;20294;-40
2021/12/22 10:40:44;;;;;;;41.43;18.33;;;-2.00;99.90;;;;;;5057770;28;20398;-40
2021/12/22 10:43:19;;;;;;;36.93;18.50;;;-1.90;99.90;;;;;;5062368;28;20227;-39
2021/12/22 10:45:50;;;;;;;34.97;17.07;;;-2.00;99.90;;;;;;5056075;28;20221;-40
2021/12/22 10:51:08;;;;;;;30.13;15.23;;;-2.00;99.90;;;;;;5067403;28;20717;-39
2021/12/22 10:53:43;;;;;;;32.33;16.63;;;-2.00;99.90;;;;;;5057191;28;20887;-40
2021/12/22 10:56:22;;;;;;;33.00;15.57;;;-1.90;99.90;;;;;;5063361;28;20223;-40
2021/12/22 10:59:00;;;;;;;29.47;15.10;;;-1.90;99.90;;;;;;5045256;28;21036;-40
2021/12/22 11:01:27;;;;;;;28.43;15.70;;;-1.80;99.90;;;;;;5061982;28;20211;-40
2021/12/22 11:04:02;;;;;;;29.73;15.87;;;-1.80;99.90;;;;;;5074050;28;20295;-40
2021/12/22 11:06:31;;;;;;;30.83;16.30;;;-1.90;99.90;;;;;;5040122;28;21746;-40
2021/12/22 11:09:01;;;;;;;34.47;16.30;;;-1.70;99.90;;;;;;5047014;28;20231;-39
2021/12/22 11:11:36;;;;;;;32.13;16.47;;;-1.80;99.90;;;;;;5044477;28;20214;-40
2021/12/22 11:14:16;;;;;;;36.63;17.10;;;-1.80;99.90;;;;;;5051800;28;20219;-40
2021/12/22 11:16:58;;;;;;;35.27;16.33;;;-1.80;99.90;;;;;;5042449;28;20203;-40
2021/12/22 11:19:28;;;;;;;30.97;16.50;;;-1.80;99.90;;;;;;5059722;28;20693;-45
2021/12/22 11:22:06;;;;;;;36.83;17.53;;;-1.70;99.90;;;;;;5068941;28;20223;-38
2021/12/22 11:24:35;;;;;;;32.70;16.63;;;-1.80;99.90;;;;;;5042035;28;21517;-37
2021/12/22 11:27:05;;;;;;;32.17;17.07;;;-1.80;99.90;;;;;;5057885;28;20223;-45
2021/12/22 11:29:33;;;;;;;31.53;16.87;;;-1.80;99.90;;;;;;5042608;28;20944;-41
2021/12/22 11:32:04;;;;;;;30.07;17.17;;;-1.80;99.90;;;;;;5058838;28;20238;-40
2021/12/22 11:34:34;;;;;;;30.37;16.67;;;-1.80;99.90;;;;;;5051215;28;20809;-40
2021/12/22 11:37:02;;;;;;;31.60;17.20;;;-1.70;99.90;;;;;;5039294;28;20235;-45
2021/12/22 11:39:30;;;;;;;30.77;16.50;;;-1.70;99.90;;;;;;5032593;28;20842;-45
2021/12/22 11:41:59;;;;;;;29.50;15.57;;;-1.70;99.90;;;;;;5070422;28;20200;-45
2021/12/22 11:44:29;;;;;;;31.10;15.77;;;-1.70;99.90;;;;;;5016012;28;20239;-45
2021/12/22 11:46:59;;;;;;;34.03;15.77;;;-1.70;99.90;;;;;;5056222;28;20230;-44
2021/12/22 11:49:27;;;;;;;32.63;15.57;;;-1.60;99.90;;;;;;5040082;28;20212;-45
2021/12/22 11:51:57;;;;;;;33.70;16.27;;;-1.60;99.90;;;;;;5057098;28;20258;-47
2021/12/22 11:54:27;;;;;;;32.07;16.30;;;-1.60;99.90;;;;;;5051802;28;20235;-45
2021/12/22 11:56:56;;;;;;;31.40;18.20;;;-1.60;99.90;;;;;;5039763;28;22053;-45
2021/12/22 11:59:33;;;;;;;28.70;15.67;;;-1.50;99.90;;;;;;5058795;28;20200;-44
2021/12/22 12:02:21;;;;;;;25.77;14.43;;;-1.50;99.90;;;;;;5042674;28;20936;-45
2021/12/22 12:04:51;;;;;;;31.00;15.90;;;-1.50;99.90;;;;;;5060965;28;20231;-45
2021/12/22 12:07:41;;;;;;;31.30;14.70;;;-1.40;99.90;;;;;;5057306;28;20227;-46
2021/12/22 12:10:39;;;;;;;25.63;15.40;;;-1.40;99.90;;;;;;5040916;28;20215;-46
2021/12/22 12:13:15;;;;;;;26.20;14.03;;;-1.30;99.90;;;;;;5044738;28;20207;-45
2021/12/22 12:22:18;;;;;;;25.03;13.40;;;-1.30;99.90;;;;;;5060478;28;20223;-46
2021/12/22 12:24:49;;;;;;;28.43;14.30;;;-1.30;99.90;;;;;;5046995;28;20231;-52
2021/12/22 12:27:50;;;;;;;24.83;15.10;;;-1.30;99.90;;;;;;5053368;28;20310;-46
2021/12/22 12:30:24;;;;;;;28.10;15.10;;;-1.20;99.90;;;;;;5051480;28;20230;-46
2021/12/22 12:33:07;;;;;;;31.70;18.20;;;-1.30;99.90;;;;;;5034967;28;20211;-45
2021/12/22 12:35:37;;;;;;;28.57;15.30;;;-1.30;99.90;;;;;;5057647;28;20224;-46
2021/12/22 12:38:12;;;;;;;28.40;15.47;;;-1.20;99.90;;;;;;5043612;28;20215;-46
2021/12/22 12:41:15;;;;;;;34.43;17.43;;;-1.20;99.90;;;;;;5067149;28;20272;-45
2021/12/22 12:43:55;;;;;;;35.87;17.93;;;-1.20;99.90;;;;;;5058208;28;20408;-45
2021/12/22 12:46:45;;;;;;;30.63;17.87;;;-1.20;99.90;;;;;;5016389;27;20208;-46
2021/12/22 12:49:40;;;;;;;26.23;14.67;;;-1.20;99.90;;;;;;5063427;27;20196;-47
2021/12/22 12:52:10;;;;;;;31.27;14.83;;;-1.20;99.90;;;;;;5045138;28;20196;-45
2021/12/22 12:54:43;;;;;;;28.57;16.57;;;-1.20;99.90;;;;;;5068381;28;20231;-45
2021/12/22 12:57:38;;;;;;;27.70;14.90;;;-1.10;99.90;;;;;;5054891;28;24224;-45
2021/12/22 13:00:18;;;;;;;30.33;14.70;;;-1.10;99.90;;;;;;5002872;28;20204;-45
2021/12/22 13:02:45;;;;;;;25.50;15.40;;;-1.10;99.90;;;;;;5057509;28;20221;-45